sensor_id;sensor_type;location;lat;lon;timestamp;P1;durP1;ratioP1;P2;durP2;ratioP2
71475;SDS011;59286;59.274;17.974;2023-03-12T00:01:35;9.10;;;6.20;;
71475;SDS011;59286;59.274;17.974;2023-03-12T00:04:01;11.70;;;5.90;;
71475;SDS011;59286;59.274;17.974;2023-03-12T00:06:27;10.10;;;5.85;;
71475;SDS011;59286;59.274;17.974;2023-03-12T00:08:53;11.43;;;6.10;;
71475;SDS011;59286;59.274;17.974;2023-03-12T00:11:18;10.25;;;6.10;;
71475;SDS011;59286;59.274;17.974;2023-03-12T00:13:48;9.55;;;5.32;;
71475;SDS011;59286;59.274;17.974;2023-03-12T00:16:17;7.43;;;4.85;;
71475;SDS011;59286;59.274;17.974;2023-03-12T00:18:43;7.50;;;4.78;;
71475;SDS011;59286;59.274;17.974;2023-03-12T00:21:09;8.68;;;4.80;;
71475;SDS011;59286;59.274;17.974;2023-03-12T00:23:34;8.68;;;5.00;;
71475;SDS011;59286;59.274;17.974;2023-03-12T00:26:01;8.80;;;4.50;;
71475;SDS011;59286;59.274;17.974;2023-03-12T00:28:27;6.15;;;3.80;;
71475;SDS011;59286;59.274;17.974;2023-03-12T00:30:53;7.47;;;4.32;;
71475;SDS011;59286;59.274;17.974;2023-03-12T00:33:18;8.07;;;4.70;;
71475;SDS011;59286;59.274;17.974;2023-03-12T00:35:43;7.60;;;4.28;;
71475;SDS011;59286;59.274;17.974;2023-03-12T00:38:08;7.03;;;4.10;;
71475;SDS011;59286;59.274;17.974;2023-03-12T00:40:34;6.57;;;4.35;;
71475;SDS011;59286;59.274;17.974;2023-03-12T00:42:59;6.93;;;4.97;;
71475;SDS011;59286;59.274;17.974;2023-03-12T00:45:25;9.48;;;4.80;;
71475;SDS011;59286;59.274;17.974;2023-03-12T00:47:50;7.45;;;4.20;;
71475;SDS011;59286;59.274;17.974;2023-03-12T00:50:15;9.73;;;4.55;;
71475;SDS011;59286;59.274;17.974;2023-03-12T00:52:41;8.73;;;4.57;;
71475;SDS011;59286;59.274;17.974;2023-03-12T00:55:06;8.52;;;4.25;;
71475;SDS011;59286;59.274;17.974;2023-03-12T00:57:32;5.80;;;4.10;;
71475;SDS011;59286;59.274;17.974;2023-03-12T00:59:57;6.68;;;4.53;;
71475;SDS011;59286;59.274;17.974;2023-03-12T01:02:22;9.90;;;4.68;;
71475;SDS011;59286;59.274;17.974;2023-03-12T01:04:48;8.35;;;5.20;;
71475;SDS011;59286;59.274;17.974;2023-03-12T01:07:13;9.48;;;5.15;;
71475;SDS011;59286;59.274;17.974;2023-03-12T01:09:38;7.60;;;4.68;;
71475;SDS011;59286;59.274;17.974;2023-03-12T01:12:04;8.57;;;4.68;;
71475;SDS011;59286;59.274;17.974;2023-03-12T01:14:30;10.45;;;4.63;;
71475;SDS011;59286;59.274;17.974;2023-03-12T01:16:55;7.07;;;4.30;;
71475;SDS011;59286;59.274;17.974;2023-03-12T01:19:20;6.18;;;4.55;;
71475;SDS011;59286;59.274;17.974;2023-03-12T01:21:46;9.57;;;5.95;;
71475;SDS011;59286;59.274;17.974;2023-03-12T01:24:11;9.57;;;5.22;;
71475;SDS011;59286;59.274;17.974;2023-03-12T01:26:36;9.63;;;5.03;;
71475;SDS011;59286;59.274;17.974;2023-03-12T01:29:02;6.53;;;4.78;;
71475;SDS011;59286;59.274;17.974;2023-03-12T01:31:27;6.65;;;4.50;;
71475;SDS011;59286;59.274;17.974;2023-03-12T01:33:52;9.85;;;4.10;;
71475;SDS011;59286;59.274;17.974;2023-03-12T01:36:22;6.72;;;4.43;;
71475;SDS011;59286;59.274;17.974;2023-03-12T01:38:49;6.72;;;4.13;;
71475;SDS011;59286;59.274;17.974;2023-03-12T01:41:16;6.85;;;4.20;;
71475;SDS011;59286;59.274;17.974;2023-03-12T01:43:41;7.25;;;4.28;;
71475;SDS011;59286;59.274;17.974;2023-03-12T01:48:56;6.40;;;3.65;;
71475;SDS011;59286;59.274;17.974;2023-03-12T01:51:23;5.35;;;3.97;;
71475;SDS011;59286;59.274;17.974;2023-03-12T01:53:51;7.57;;;4.07;;
71475;SDS011;59286;59.274;17.974;2023-03-12T01:56:20;8.32;;;5.32;;
71475;SDS011;59286;59.274;17.974;2023-03-12T01:58:50;8.23;;;4.60;;
71475;SDS011;59286;59.274;17.974;2023-03-12T02:01:18;8.50;;;4.70;;
71475;SDS011;59286;59.274;17.974;2023-03-12T02:03:46;8.38;;;5.03;;
71475;SDS011;59286;59.274;17.974;2023-03-12T02:06:14;7.00;;;4.30;;
71475;SDS011;59286;59.274;17.974;2023-03-12T02:08:41;5.20;;;4.10;;
71475;SDS011;59286;59.274;17.974;2023-03-12T02:11:09;4.97;;;3.63;;
71475;SDS011;59286;59.274;17.974;2023-03-12T02:13:34;4.68;;;3.20;;
71475;SDS011;59286;59.274;17.974;2023-03-12T02:16:01;5.60;;;3.40;;
71475;SDS011;59286;59.274;17.974;2023-03-12T02:18:27;4.95;;;3.40;;
71475;SDS011;59286;59.274;17.974;2023-03-12T02:26:30;5.47;;;3.40;;
71475;SDS011;59286;59.274;17.974;2023-03-12T02:28:58;5.47;;;3.40;;
71475;SDS011;59286;59.274;17.974;2023-03-12T02:31:25;4.07;;;3.13;;
71475;SDS011;59286;59.274;17.974;2023-03-12T02:33:55;3.78;;;2.80;;
71475;SDS011;59286;59.274;17.974;2023-03-12T02:36:24;5.40;;;2.78;;
71475;SDS011;59286;59.274;17.974;2023-03-12T02:38:51;5.65;;;3.42;;
71475;SDS011;59286;59.274;17.974;2023-03-12T02:41:21;3.83;;;2.65;;
71475;SDS011;59286;59.274;17.974;2023-03-12T02:46:31;3.58;;;2.53;;
71475;SDS011;59286;59.274;17.974;2023-03-12T02:49:00;3.75;;;2.90;;
71475;SDS011;59286;59.274;17.974;2023-03-12T02:51:25;3.45;;;2.65;;
71475;SDS011;59286;59.274;17.974;2023-03-12T02:53:51;3.63;;;2.47;;
71475;SDS011;59286;59.274;17.974;2023-03-12T02:56:19;3.30;;;2.30;;
71475;SDS011;59286;59.274;17.974;2023-03-12T02:58:49;2.78;;;2.30;;
71475;SDS011;59286;59.274;17.974;2023-03-12T03:01:15;3.47;;;2.47;;
71475;SDS011;59286;59.274;17.974;2023-03-12T03:03:40;2.78;;;2.33;;
71475;SDS011;59286;59.274;17.974;2023-03-12T03:06:06;3.40;;;2.67;;
71475;SDS011;59286;59.274;17.974;2023-03-12T03:08:31;3.05;;;2.28;;
71475;SDS011;59286;59.274;17.974;2023-03-12T03:10:57;3.45;;;2.28;;
71475;SDS011;59286;59.274;17.974;2023-03-12T03:13:23;2.58;;;1.88;;
71475;SDS011;59286;59.274;17.974;2023-03-12T03:15:51;3.65;;;2.47;;
71475;SDS011;59286;59.274;17.974;2023-03-12T03:18:16;3.67;;;2.08;;
71475;SDS011;59286;59.274;17.974;2023-03-12T03:20:41;4.57;;;2.50;;
71475;SDS011;59286;59.274;17.974;2023-03-12T03:23:08;2.70;;;2.10;;
71475;SDS011;59286;59.274;17.974;2023-03-12T03:25:36;3.28;;;2.05;;
71475;SDS011;59286;59.274;17.974;2023-03-12T03:28:02;2.72;;;2.50;;
71475;SDS011;59286;59.274;17.974;2023-03-12T03:30:27;2.35;;;1.90;;
71475;SDS011;59286;59.274;17.974;2023-03-12T03:32:52;3.55;;;2.47;;
71475;SDS011;59286;59.274;17.974;2023-03-12T03:35:18;5.80;;;2.63;;
71475;SDS011;59286;59.274;17.974;2023-03-12T03:37:43;6.72;;;2.38;;
71475;SDS011;59286;59.274;17.974;2023-03-12T03:40:09;3.15;;;2.05;;
71475;SDS011;59286;59.274;17.974;2023-03-12T03:42:36;2.72;;;2.25;;
71475;SDS011;59286;59.274;17.974;2023-03-12T03:45:03;2.72;;;1.92;;
71475;SDS011;59286;59.274;17.974;2023-03-12T03:47:29;3.17;;;2.22;;
71475;SDS011;59286;59.274;17.974;2023-03-12T03:49:54;2.35;;;1.90;;
71475;SDS011;59286;59.274;17.974;2023-03-12T03:52:19;2.10;;;1.90;;
71475;SDS011;59286;59.274;17.974;2023-03-12T03:54:45;2.47;;;1.90;;
71475;SDS011;59286;59.274;17.974;2023-03-12T03:57:10;3.58;;;2.30;;
71475;SDS011;59286;59.274;17.974;2023-03-12T03:59:35;2.78;;;2.30;;
71475;SDS011;59286;59.274;17.974;2023-03-12T04:02:01;2.63;;;1.90;;
71475;SDS011;59286;59.274;17.974;2023-03-12T04:04:26;2.40;;;1.88;;
71475;SDS011;59286;59.274;17.974;2023-03-12T04:06:52;4.15;;;1.98;;
71475;SDS011;59286;59.274;17.974;2023-03-12T04:09:18;2.58;;;2.17;;
71475;SDS011;59286;59.274;17.974;2023-03-12T04:11:43;2.55;;;1.90;;
71475;SDS011;59286;59.274;17.974;2023-03-12T04:14:08;4.10;;;2.60;;
71475;SDS011;59286;59.274;17.974;2023-03-12T04:16:34;2.72;;;1.92;;
71475;SDS011;59286;59.274;17.974;2023-03-12T04:18:59;2.47;;;2.15;;
71475;SDS011;59286;59.274;17.974;2023-03-12T04:21:24;4.85;;;2.22;;
71475;SDS011;59286;59.274;17.974;2023-03-12T04:23:50;3.28;;;2.10;;
71475;SDS011;59286;59.274;17.974;2023-03-12T04:26:15;3.72;;;2.38;;
71475;SDS011;59286;59.274;17.974;2023-03-12T04:28:41;3.42;;;2.30;;
71475;SDS011;59286;59.274;17.974;2023-03-12T04:31:06;5.00;;;2.42;;
71475;SDS011;59286;59.274;17.974;2023-03-12T04:33:34;2.85;;;2.38;;
71475;SDS011;59286;59.274;17.974;2023-03-12T04:36:01;3.58;;;2.28;;
71475;SDS011;59286;59.274;17.974;2023-03-12T04:38:27;3.72;;;2.40;;
71475;SDS011;59286;59.274;17.974;2023-03-12T04:40:57;4.95;;;2.20;;
71475;SDS011;59286;59.274;17.974;2023-03-12T04:43:27;4.53;;;2.35;;
71475;SDS011;59286;59.274;17.974;2023-03-12T04:45:53;3.30;;;2.35;;
71475;SDS011;59286;59.274;17.974;2023-03-12T04:48:20;3.85;;;2.15;;
71475;SDS011;59286;59.274;17.974;2023-03-12T04:50:45;2.20;;;2.00;;
71475;SDS011;59286;59.274;17.974;2023-03-12T04:53:10;5.82;;;2.15;;
71475;SDS011;59286;59.274;17.974;2023-03-12T04:55:36;3.47;;;2.42;;
71475;SDS011;59286;59.274;17.974;2023-03-12T04:58:01;2.60;;;2.20;;
71475;SDS011;59286;59.274;17.974;2023-03-12T05:00:27;2.85;;;2.10;;
71475;SDS011;59286;59.274;17.974;2023-03-12T05:02:52;2.65;;;2.38;;
71475;SDS011;59286;59.274;17.974;2023-03-12T05:05:18;4.65;;;2.40;;
71475;SDS011;59286;59.274;17.974;2023-03-12T05:07:44;2.97;;;2.30;;
71475;SDS011;59286;59.274;17.974;2023-03-12T05:10:09;3.30;;;2.38;;
71475;SDS011;59286;59.274;17.974;2023-03-12T05:12:35;3.13;;;2.25;;
71475;SDS011;59286;59.274;17.974;2023-03-12T05:15:00;3.08;;;2.30;;
71475;SDS011;59286;59.274;17.974;2023-03-12T05:17:25;4.10;;;2.45;;
71475;SDS011;59286;59.274;17.974;2023-03-12T05:19:51;4.50;;;2.80;;
71475;SDS011;59286;59.274;17.974;2023-03-12T05:22:16;3.90;;;2.08;;
71475;SDS011;59286;59.274;17.974;2023-03-12T05:24:42;4.65;;;1.88;;
71475;SDS011;59286;59.274;17.974;2023-03-12T05:27:07;2.72;;;2.30;;
71475;SDS011;59286;59.274;17.974;2023-03-12T05:29:33;2.00;;;1.80;;
71475;SDS011;59286;59.274;17.974;2023-03-12T05:32:00;3.15;;;2.25;;
71475;SDS011;59286;59.274;17.974;2023-03-12T05:34:26;3.20;;;1.95;;
71475;SDS011;59286;59.274;17.974;2023-03-12T05:36:52;3.88;;;2.08;;
71475;SDS011;59286;59.274;17.974;2023-03-12T05:39:18;4.78;;;2.10;;
71475;SDS011;59286;59.274;17.974;2023-03-12T05:41:43;3.15;;;2.00;;
71475;SDS011;59286;59.274;17.974;2023-03-12T05:44:09;3.10;;;1.98;;
71475;SDS011;59286;59.274;17.974;2023-03-12T05:46:35;3.13;;;2.22;;
71475;SDS011;59286;59.274;17.974;2023-03-12T05:49:01;2.50;;;2.17;;
71475;SDS011;59286;59.274;17.974;2023-03-12T05:51:26;4.50;;;2.08;;
71475;SDS011;59286;59.274;17.974;2023-03-12T05:53:51;3.95;;;2.10;;
71475;SDS011;59286;59.274;17.974;2023-03-12T05:56:17;4.30;;;2.22;;
71475;SDS011;59286;59.274;17.974;2023-03-12T05:58:43;4.28;;;2.38;;
71475;SDS011;59286;59.274;17.974;2023-03-12T06:01:16;3.97;;;2.10;;
71475;SDS011;59286;59.274;17.974;2023-03-12T06:03:44;3.40;;;2.00;;
71475;SDS011;59286;59.274;17.974;2023-03-12T06:06:09;3.03;;;1.95;;
71475;SDS011;59286;59.274;17.974;2023-03-12T06:08:35;3.88;;;1.80;;
71475;SDS011;59286;59.274;17.974;2023-03-12T06:11:01;1.80;;;1.60;;
71475;SDS011;59286;59.274;17.974;2023-03-12T06:13:26;2.25;;;1.50;;
71475;SDS011;59286;59.274;17.974;2023-03-12T06:15:52;3.70;;;1.77;;
71475;SDS011;59286;59.274;17.974;2023-03-12T06:18:18;3.40;;;1.83;;
71475;SDS011;59286;59.274;17.974;2023-03-12T06:20:43;2.97;;;1.80;;
71475;SDS011;59286;59.274;17.974;2023-03-12T06:23:08;4.47;;;1.77;;
71475;SDS011;59286;59.274;17.974;2023-03-12T06:25:34;2.20;;;1.80;;
71475;SDS011;59286;59.274;17.974;2023-03-12T06:27:59;1.95;;;1.48;;
71475;SDS011;59286;59.274;17.974;2023-03-12T06:30:25;1.50;;;1.40;;
71475;SDS011;59286;59.274;17.974;2023-03-12T06:32:51;2.25;;;1.75;;
71475;SDS011;59286;59.274;17.974;2023-03-12T06:35:17;2.83;;;1.70;;
71475;SDS011;59286;59.274;17.974;2023-03-12T06:37:42;2.45;;;1.48;;
71475;SDS011;59286;59.274;17.974;2023-03-12T06:40:07;1.77;;;1.55;;
71475;SDS011;59286;59.274;17.974;2023-03-12T06:42:34;2.85;;;1.40;;
71475;SDS011;59286;59.274;17.974;2023-03-12T06:44:59;2.22;;;1.60;;
71475;SDS011;59286;59.274;17.974;2023-03-12T06:47:25;2.20;;;1.60;;
71475;SDS011;59286;59.274;17.974;2023-03-12T06:49:50;2.33;;;1.70;;
71475;SDS011;59286;59.274;17.974;2023-03-12T06:52:15;1.67;;;1.40;;
71475;SDS011;59286;59.274;17.974;2023-03-12T06:54:41;2.58;;;1.33;;
71475;SDS011;59286;59.274;17.974;2023-03-12T06:57:06;1.50;;;1.40;;
71475;SDS011;59286;59.274;17.974;2023-03-12T06:59:31;3.70;;;1.33;;
71475;SDS011;59286;59.274;17.974;2023-03-12T07:01:57;2.10;;;1.60;;
71475;SDS011;59286;59.274;17.974;2023-03-12T07:04:22;3.60;;;1.63;;
71475;SDS011;59286;59.274;17.974;2023-03-12T07:06:47;2.17;;;1.60;;
71475;SDS011;59286;59.274;17.974;2023-03-12T07:09:15;3.33;;;1.73;;
71475;SDS011;59286;59.274;17.974;2023-03-12T07:11:42;3.22;;;1.30;;
71475;SDS011;59286;59.274;17.974;2023-03-12T07:14:07;1.55;;;1.45;;
71475;SDS011;59286;59.274;17.974;2023-03-12T07:16:32;2.90;;;1.20;;
71475;SDS011;59286;59.274;17.974;2023-03-12T07:18:58;2.25;;;1.30;;
71475;SDS011;59286;59.274;17.974;2023-03-12T07:21:24;4.43;;;1.65;;
71475;SDS011;59286;59.274;17.974;2023-03-12T07:23:50;1.42;;;1.20;;
71475;SDS011;59286;59.274;17.974;2023-03-12T07:26:15;1.30;;;1.15;;
71475;SDS011;59286;59.274;17.974;2023-03-12T07:28:41;3.38;;;1.27;;
71475;SDS011;59286;59.274;17.974;2023-03-12T07:31:06;1.50;;;1.40;;
71475;SDS011;59286;59.274;17.974;2023-03-12T07:33:32;2.35;;;1.30;;
71475;SDS011;59286;59.274;17.974;2023-03-12T07:35:58;3.08;;;1.25;;
71475;SDS011;59286;59.274;17.974;2023-03-12T07:38:23;4.10;;;1.30;;
71475;SDS011;59286;59.274;17.974;2023-03-12T07:40:50;3.67;;;1.20;;
71475;SDS011;59286;59.274;17.974;2023-03-12T07:43:19;1.88;;;1.10;;
71475;SDS011;59286;59.274;17.974;2023-03-12T07:45:45;2.72;;;1.10;;
71475;SDS011;59286;59.274;17.974;2023-03-12T07:48:10;1.40;;;1.20;;
71475;SDS011;59286;59.274;17.974;2023-03-12T07:50:37;1.55;;;1.40;;
71475;SDS011;59286;59.274;17.974;2023-03-12T07:53:03;1.60;;;1.15;;
71475;SDS011;59286;59.274;17.974;2023-03-12T07:55:29;1.30;;;1.20;;
71475;SDS011;59286;59.274;17.974;2023-03-12T07:57:55;1.73;;;1.20;;
71475;SDS011;59286;59.274;17.974;2023-03-12T08:00:23;2.88;;;1.20;;
71475;SDS011;59286;59.274;17.974;2023-03-12T08:02:49;2.13;;;1.27;;
71475;SDS011;59286;59.274;17.974;2023-03-12T08:05:14;1.80;;;1.05;;
71475;SDS011;59286;59.274;17.974;2023-03-12T08:07:39;1.60;;;1.30;;
71475;SDS011;59286;59.274;17.974;2023-03-12T08:10:05;1.25;;;1.15;;
71475;SDS011;59286;59.274;17.974;2023-03-12T08:12:32;1.33;;;1.10;;
71475;SDS011;59286;59.274;17.974;2023-03-12T08:14:58;1.23;;;1.13;;
71475;SDS011;59286;59.274;17.974;2023-03-12T08:17:23;4.93;;;2.00;;
71475;SDS011;59286;59.274;17.974;2023-03-12T08:19:49;1.98;;;1.15;;
71475;SDS011;59286;59.274;17.974;2023-03-12T08:22:14;0.85;;;0.85;;
71475;SDS011;59286;59.274;17.974;2023-03-12T08:24:39;1.10;;;0.88;;
71475;SDS011;59286;59.274;17.974;2023-03-12T08:27:05;1.20;;;0.82;;
71475;SDS011;59286;59.274;17.974;2023-03-12T08:29:30;1.38;;;1.00;;
71475;SDS011;59286;59.274;17.974;2023-03-12T08:31:57;1.38;;;0.70;;
71475;SDS011;59286;59.274;17.974;2023-03-12T08:34:23;1.05;;;0.93;;
71475;SDS011;59286;59.274;17.974;2023-03-12T08:36:48;1.45;;;0.90;;
71475;SDS011;59286;59.274;17.974;2023-03-12T08:39:13;0.85;;;0.70;;
71475;SDS011;59286;59.274;17.974;2023-03-12T08:41:39;1.40;;;0.73;;
71475;SDS011;59286;59.274;17.974;2023-03-12T08:44:05;0.98;;;0.88;;
71475;SDS011;59286;59.274;17.974;2023-03-12T08:46:30;1.50;;;0.90;;
71475;SDS011;59286;59.274;17.974;2023-03-12T08:48:55;4.20;;;0.80;;
71475;SDS011;59286;59.274;17.974;2023-03-12T08:51:21;5.45;;;0.80;;
71475;SDS011;59286;59.274;17.974;2023-03-12T08:53:46;2.28;;;0.90;;
71475;SDS011;59286;59.274;17.974;2023-03-12T08:56:11;0.98;;;0.90;;
71475;SDS011;59286;59.274;17.974;2023-03-12T08:58:37;2.03;;;0.90;;
71475;SDS011;59286;59.274;17.974;2023-03-12T09:01:06;2.80;;;0.90;;
71475;SDS011;59286;59.274;17.974;2023-03-12T09:03:33;3.13;;;1.00;;
71475;SDS011;59286;59.274;17.974;2023-03-12T09:06:03;1.35;;;0.80;;
71475;SDS011;59286;59.274;17.974;2023-03-12T09:08:37;0.93;;;0.88;;
71475;SDS011;59286;59.274;17.974;2023-03-12T09:11:03;1.58;;;0.90;;
71475;SDS011;59286;59.274;17.974;2023-03-12T09:13:29;0.93;;;0.80;;
71475;SDS011;59286;59.274;17.974;2023-03-12T09:15:57;0.75;;;0.75;;
71475;SDS011;59286;59.274;17.974;2023-03-12T09:18:23;0.85;;;0.77;;
71475;SDS011;59286;59.274;17.974;2023-03-12T09:20:49;0.98;;;0.80;;
71475;SDS011;59286;59.274;17.974;2023-03-12T09:23:14;1.25;;;0.80;;
71475;SDS011;59286;59.274;17.974;2023-03-12T09:25:43;0.70;;;0.70;;
71475;SDS011;59286;59.274;17.974;2023-03-12T09:28:09;0.60;;;0.60;;
71475;SDS011;59286;59.274;17.974;2023-03-12T09:30:34;0.50;;;0.50;;
71475;SDS011;59286;59.274;17.974;2023-03-12T09:33:00;1.67;;;0.82;;
71475;SDS011;59286;59.274;17.974;2023-03-12T09:35:25;2.80;;;0.65;;
71475;SDS011;59286;59.274;17.974;2023-03-12T09:37:50;0.60;;;0.60;;
71475;SDS011;59286;59.274;17.974;2023-03-12T09:40:17;2.08;;;0.70;;
71475;SDS011;59286;59.274;17.974;2023-03-12T09:42:47;2.33;;;0.95;;
71475;SDS011;59286;59.274;17.974;2023-03-12T09:45:23;2.95;;;0.73;;
71475;SDS011;59286;59.274;17.974;2023-03-12T09:48:00;1.13;;;0.82;;
71475;SDS011;59286;59.274;17.974;2023-03-12T09:50:32;4.80;;;0.80;;
71475;SDS011;59286;59.274;17.974;2023-03-12T09:55:48;0.90;;;0.60;;
71475;SDS011;59286;59.274;17.974;2023-03-12T10:00:54;0.80;;;0.70;;
71475;SDS011;59286;59.274;17.974;2023-03-12T10:03:28;0.82;;;0.63;;
71475;SDS011;59286;59.274;17.974;2023-03-12T10:06:17;2.03;;;0.70;;
71475;SDS011;59286;59.274;17.974;2023-03-12T10:11:55;0.98;;;0.60;;
71475;SDS011;59286;59.274;17.974;2023-03-12T10:14:27;0.73;;;0.70;;
71475;SDS011;59286;59.274;17.974;2023-03-12T10:25:10;2.58;;;0.60;;
71475;SDS011;59286;59.274;17.974;2023-03-12T10:27:43;1.00;;;0.68;;
71475;SDS011;59286;59.274;17.974;2023-03-12T10:30:14;0.70;;;0.70;;
71475;SDS011;59286;59.274;17.974;2023-03-12T10:33:03;2.93;;;0.70;;
71475;SDS011;59286;59.274;17.974;2023-03-12T10:35:34;2.08;;;1.35;;
71475;SDS011;59286;59.274;17.974;2023-03-12T10:38:03;0.63;;;0.57;;
71475;SDS011;59286;59.274;17.974;2023-03-12T10:40:37;1.13;;;0.73;;
71475;SDS011;59286;59.274;17.974;2023-03-12T10:43:04;3.10;;;0.60;;
71475;SDS011;59286;59.274;17.974;2023-03-12T10:48:34;0.65;;;0.60;;
71475;SDS011;59286;59.274;17.974;2023-03-12T10:51:09;3.25;;;0.60;;
71475;SDS011;59286;59.274;17.974;2023-03-12T10:53:40;0.70;;;0.70;;
71475;SDS011;59286;59.274;17.974;2023-03-12T10:56:16;1.35;;;0.52;;
71475;SDS011;59286;59.274;17.974;2023-03-12T10:58:47;1.27;;;0.63;;
71475;SDS011;59286;59.274;17.974;2023-03-12T11:03:39;0.65;;;0.65;;
71475;SDS011;59286;59.274;17.974;2023-03-12T11:06:05;2.20;;;0.65;;
71475;SDS011;59286;59.274;17.974;2023-03-12T11:08:35;1.02;;;0.68;;
71475;SDS011;59286;59.274;17.974;2023-03-12T11:11:02;2.58;;;0.95;;
71475;SDS011;59286;59.274;17.974;2023-03-12T11:16:00;1.00;;;0.60;;
71475;SDS011;59286;59.274;17.974;2023-03-12T11:18:34;2.65;;;0.60;;
71475;SDS011;59286;59.274;17.974;2023-03-12T11:23:43;1.23;;;0.73;;
71475;SDS011;59286;59.274;17.974;2023-03-12T11:26:22;1.45;;;0.40;;
71475;SDS011;59286;59.274;17.974;2023-03-12T11:28:50;0.88;;;0.50;;
71475;SDS011;59286;59.274;17.974;2023-03-12T11:31:22;0.68;;;0.47;;
71475;SDS011;59286;59.274;17.974;2023-03-12T11:33:53;2.22;;;0.68;;
71475;SDS011;59286;59.274;17.974;2023-03-12T11:36:30;1.48;;;0.70;;
71475;SDS011;59286;59.274;17.974;2023-03-12T11:53:18;1.05;;;0.50;;
71475;SDS011;59286;59.274;17.974;2023-03-12T12:12:07;1.10;;;0.50;;
71475;SDS011;59286;59.274;17.974;2023-03-12T12:14:45;3.22;;;0.68;;
71475;SDS011;59286;59.274;17.974;2023-03-12T12:23:16;3.50;;;0.60;;
71475;SDS011;59286;59.274;17.974;2023-03-12T12:25:51;2.50;;;0.52;;
71475;SDS011;59286;59.274;17.974;2023-03-12T12:28:27;1.33;;;0.70;;
71475;SDS011;59286;59.274;17.974;2023-03-12T12:36:28;1.50;;;0.50;;
71475;SDS011;59286;59.274;17.974;2023-03-12T12:38:58;1.05;;;0.57;;
71475;SDS011;59286;59.274;17.974;2023-03-12T12:41:31;0.55;;;0.38;;
71475;SDS011;59286;59.274;17.974;2023-03-12T12:44:04;1.45;;;0.60;;
71475;SDS011;59286;59.274;17.974;2023-03-12T12:46:38;1.97;;;0.90;;
71475;SDS011;59286;59.274;17.974;2023-03-12T12:51:59;1.15;;;0.60;;
71475;SDS011;59286;59.274;17.974;2023-03-12T13:03:02;0.77;;;0.50;;
71475;SDS011;59286;59.274;17.974;2023-03-12T13:07:59;6.10;;;0.80;;
71475;SDS011;59286;59.274;17.974;2023-03-12T13:13:02;0.70;;;0.70;;
71475;SDS011;59286;59.274;17.974;2023-03-12T13:15:42;1.08;;;0.60;;
71475;SDS011;59286;59.274;17.974;2023-03-12T13:18:17;3.75;;;0.70;;
71475;SDS011;59286;59.274;17.974;2023-03-12T13:29:20;1.45;;;0.75;;
71475;SDS011;59286;59.274;17.974;2023-03-12T13:45:32;0.95;;;0.50;;
71475;SDS011;59286;59.274;17.974;2023-03-12T13:48:04;2.92;;;0.52;;
71475;SDS011;59286;59.274;17.974;2023-03-12T13:50:29;1.25;;;0.50;;
71475;SDS011;59286;59.274;17.974;2023-03-12T13:53:01;2.08;;;0.40;;
71475;SDS011;59286;59.274;17.974;2023-03-12T13:55:31;1.00;;;0.50;;
71475;SDS011;59286;59.274;17.974;2023-03-12T14:00:42;0.88;;;0.40;;
71475;SDS011;59286;59.274;17.974;2023-03-12T14:03:24;2.50;;;0.60;;
71475;SDS011;59286;59.274;17.974;2023-03-12T14:08:29;2.00;;;0.57;;
71475;SDS011;59286;59.274;17.974;2023-03-12T14:11:11;0.80;;;0.30;;
71475;SDS011;59286;59.274;17.974;2023-03-12T14:16:49;1.90;;;0.60;;
71475;SDS011;59286;59.274;17.974;2023-03-12T14:19:25;1.80;;;0.60;;
71475;SDS011;59286;59.274;17.974;2023-03-12T14:21:53;0.80;;;0.43;;
71475;SDS011;59286;59.274;17.974;2023-03-12T14:24:22;1.95;;;0.40;;
71475;SDS011;59286;59.274;17.974;2023-03-12T14:26:51;2.95;;;0.60;;
71475;SDS011;59286;59.274;17.974;2023-03-12T14:31:59;1.05;;;0.55;;
71475;SDS011;59286;59.274;17.974;2023-03-12T14:34:38;2.78;;;0.65;;
71475;SDS011;59286;59.274;17.974;2023-03-12T14:37:17;1.58;;;0.60;;
71475;SDS011;59286;59.274;17.974;2023-03-12T14:42:35;2.00;;;0.50;;
71475;SDS011;59286;59.274;17.974;2023-03-12T14:45:02;0.93;;;0.60;;
71475;SDS011;59286;59.274;17.974;2023-03-12T14:47:27;2.85;;;0.70;;
71475;SDS011;59286;59.274;17.974;2023-03-12T14:49:54;0.75;;;0.60;;
71475;SDS011;59286;59.274;17.974;2023-03-12T14:52:28;2.60;;;0.55;;
71475;SDS011;59286;59.274;17.974;2023-03-12T14:54:58;1.02;;;0.60;;
71475;SDS011;59286;59.274;17.974;2023-03-12T14:57:25;0.80;;;0.52;;
71475;SDS011;59286;59.274;17.974;2023-03-12T14:59:54;1.17;;;0.60;;
71475;SDS011;59286;59.274;17.974;2023-03-12T15:02:25;5.13;;;0.68;;
71475;SDS011;59286;59.274;17.974;2023-03-12T15:04:55;1.17;;;0.57;;
71475;SDS011;59286;59.274;17.974;2023-03-12T15:07:28;0.63;;;0.63;;
71475;SDS011;59286;59.274;17.974;2023-03-12T15:09:56;0.60;;;0.57;;
71475;SDS011;59286;59.274;17.974;2023-03-12T15:12:23;1.05;;;0.80;;
71475;SDS011;59286;59.274;17.974;2023-03-12T15:15:02;2.60;;;0.57;;
71475;SDS011;59286;59.274;17.974;2023-03-12T15:17:31;1.15;;;0.60;;
71475;SDS011;59286;59.274;17.974;2023-03-12T15:19:58;0.93;;;0.50;;
71475;SDS011;59286;59.274;17.974;2023-03-12T15:22:28;0.70;;;0.70;;
71475;SDS011;59286;59.274;17.974;2023-03-12T15:24:53;1.23;;;0.77;;
71475;SDS011;59286;59.274;17.974;2023-03-12T15:29:53;3.22;;;0.60;;
71475;SDS011;59286;59.274;17.974;2023-03-12T15:32:20;0.50;;;0.50;;
71475;SDS011;59286;59.274;17.974;2023-03-12T15:34:49;0.70;;;0.50;;
71475;SDS011;59286;59.274;17.974;2023-03-12T15:37:23;0.95;;;0.52;;
71475;SDS011;59286;59.274;17.974;2023-03-12T15:42:46;1.48;;;0.70;;
71475;SDS011;59286;59.274;17.974;2023-03-12T15:45:20;0.77;;;0.50;;
71475;SDS011;59286;59.274;17.974;2023-03-12T15:47:59;0.65;;;0.60;;
71475;SDS011;59286;59.274;17.974;2023-03-12T15:50:33;0.60;;;0.50;;
71475;SDS011;59286;59.274;17.974;2023-03-12T15:55:35;1.80;;;0.68;;
71475;SDS011;59286;59.274;17.974;2023-03-12T15:58:01;0.85;;;0.70;;
71475;SDS011;59286;59.274;17.974;2023-03-12T16:00:46;1.55;;;0.75;;
71475;SDS011;59286;59.274;17.974;2023-03-12T16:03:15;1.20;;;0.60;;
71475;SDS011;59286;59.274;17.974;2023-03-12T16:05:41;1.95;;;0.70;;
71475;SDS011;59286;59.274;17.974;2023-03-12T16:08:14;1.08;;;0.40;;
71475;SDS011;59286;59.274;17.974;2023-03-12T16:10:45;1.33;;;0.70;;
71475;SDS011;59286;59.274;17.974;2023-03-12T16:13:13;0.70;;;0.60;;
71475;SDS011;59286;59.274;17.974;2023-03-12T16:15:40;0.60;;;0.52;;
71475;SDS011;59286;59.274;17.974;2023-03-12T16:18:11;0.68;;;0.60;;
71475;SDS011;59286;59.274;17.974;2023-03-12T16:20:45;2.83;;;0.60;;
71475;SDS011;59286;59.274;17.974;2023-03-12T16:23:12;6.25;;;2.50;;
71475;SDS011;59286;59.274;17.974;2023-03-12T16:25:40;7.32;;;2.80;;
71475;SDS011;59286;59.274;17.974;2023-03-12T16:28:09;2.88;;;1.20;;
71475;SDS011;59286;59.274;17.974;2023-03-12T16:30:38;1.83;;;0.93;;
71475;SDS011;59286;59.274;17.974;2023-03-12T16:33:04;6.78;;;1.55;;
71475;SDS011;59286;59.274;17.974;2023-03-12T16:35:30;1.85;;;1.13;;
71475;SDS011;59286;59.274;17.974;2023-03-12T16:37:56;2.65;;;1.55;;
71475;SDS011;59286;59.274;17.974;2023-03-12T16:40:28;1.17;;;0.80;;
71475;SDS011;59286;59.274;17.974;2023-03-12T16:42:57;1.52;;;0.90;;
71475;SDS011;59286;59.274;17.974;2023-03-12T16:45:26;2.53;;;0.90;;
71475;SDS011;59286;59.274;17.974;2023-03-12T16:47:52;1.63;;;0.85;;
71475;SDS011;59286;59.274;17.974;2023-03-12T16:50:22;1.10;;;0.73;;
71475;SDS011;59286;59.274;17.974;2023-03-12T16:52:48;1.58;;;1.00;;
71475;SDS011;59286;59.274;17.974;2023-03-12T16:55:17;1.35;;;0.80;;
71475;SDS011;59286;59.274;17.974;2023-03-12T16:57:54;2.30;;;1.42;;